sensor_id;sensor_type;location;lat;lon;timestamp;temperature;humidity
23633;DHT22;11993;48.748;9.166;2022-08-21T00:01:58;19.00;57.50
23633;DHT22;11993;48.748;9.166;2022-08-21T00:04:24;19.00;57.30
23633;DHT22;11993;48.748;9.166;2022-08-21T00:06:51;19.00;56.90
23633;DHT22;11993;48.748;9.166;2022-08-21T00:09:17;19.00;57.30
23633;DHT22;11993;48.748;9.166;2022-08-21T00:11:43;18.90;56.90
23633;DHT22;11993;48.748;9.166;2022-08-21T00:14:10;19.00;57.50
23633;DHT22;11993;48.748;9.166;2022-08-21T00:16:36;18.90;57.70
23633;DHT22;11993;48.748;9.166;2022-08-21T00:19:02;19.00;57.80
23633;DHT22;11993;48.748;9.166;2022-08-21T00:21:28;18.90;57.60
23633;DHT22;11993;48.748;9.166;2022-08-21T00:23:54;19.00;57.70
23633;DHT22;11993;48.748;9.166;2022-08-21T00:26:19;18.90;57.50
23633;DHT22;11993;48.748;9.166;2022-08-21T00:28:45;18.90;57.70
23633;DHT22;11993;48.748;9.166;2022-08-21T00:31:14;18.90;57.50
23633;DHT22;11993;48.748;9.166;2022-08-21T00:33:41;18.80;57.40
23633;DHT22;11993;48.748;9.166;2022-08-21T00:36:06;18.90;57.40
23633;DHT22;11993;48.748;9.166;2022-08-21T00:38:33;18.80;57.10
23633;DHT22;11993;48.748;9.166;2022-08-21T00:41:01;18.80;57.60
23633;DHT22;11993;48.748;9.166;2022-08-21T00:43:30;18.80;57.10
23633;DHT22;11993;48.748;9.166;2022-08-21T00:45:57;18.80;57.60
23633;DHT22;11993;48.748;9.166;2022-08-21T00:48:24;18.70;57.60
23633;DHT22;11993;48.748;9.166;2022-08-21T00:53:25;18.70;57.80
23633;DHT22;11993;48.748;9.166;2022-08-21T00:55:52;18.80;57.50
23633;DHT22;11993;48.748;9.166;2022-08-21T00:58:18;18.70;57.20
23633;DHT22;11993;48.748;9.166;2022-08-21T01:00:47;18.70;57.60
23633;DHT22;11993;48.748;9.166;2022-08-21T01:03:15;18.60;57.40
23633;DHT22;11993;48.748;9.166;2022-08-21T01:05:43;18.60;57.60
23633;DHT22;11993;48.748;9.166;2022-08-21T01:08:10;18.60;57.80
23633;DHT22;11993;48.748;9.166;2022-08-21T01:10:36;18.60;58.30
23633;DHT22;11993;48.748;9.166;2022-08-21T01:13:03;18.60;58.50
23633;DHT22;11993;48.748;9.166;2022-08-21T01:15:32;18.60;58.70
23633;DHT22;11993;48.748;9.166;2022-08-21T01:17:58;18.60;58.50
23633;DHT22;11993;48.748;9.166;2022-08-21T01:20:25;18.50;58.80
23633;DHT22;11993;48.748;9.166;2022-08-21T01:22:51;18.50;59.10
23633;DHT22;11993;48.748;9.166;2022-08-21T01:25:17;18.50;59.50
23633;DHT22;11993;48.748;9.166;2022-08-21T01:27:45;18.40;59.50
23633;DHT22;11993;48.748;9.166;2022-08-21T01:30:15;18.40;59.50
23633;DHT22;11993;48.748;9.166;2022-08-21T01:32:42;18.40;58.90
23633;DHT22;11993;48.748;9.166;2022-08-21T01:35:09;18.30;59.40
23633;DHT22;11993;48.748;9.166;2022-08-21T01:37:35;18.40;59.50
23633;DHT22;11993;48.748;9.166;2022-08-21T01:40:01;18.40;59.40
23633;DHT22;11993;48.748;9.166;2022-08-21T01:42:26;18.40;59.60
23633;DHT22;11993;48.748;9.166;2022-08-21T01:44:52;18.40;59.20
23633;DHT22;11993;48.748;9.166;2022-08-21T01:47:18;18.40;58.90
23633;DHT22;11993;48.748;9.166;2022-08-21T01:49:43;18.40;58.70
23633;DHT22;11993;48.748;9.166;2022-08-21T01:52:10;18.30;59.30
23633;DHT22;11993;48.748;9.166;2022-08-21T01:54:37;18.40;59.10
23633;DHT22;11993;48.748;9.166;2022-08-21T01:57:03;18.30;59.00
23633;DHT22;11993;48.748;9.166;2022-08-21T01:59:29;18.20;59.30
23633;DHT22;11993;48.748;9.166;2022-08-21T02:01:55;18.20;59.20
23633;DHT22;11993;48.748;9.166;2022-08-21T02:04:21;18.10;59.30
23633;DHT22;11993;48.748;9.166;2022-08-21T02:06:47;18.10;59.60
23633;DHT22;11993;48.748;9.166;2022-08-21T02:09:13;18.10;59.70
23633;DHT22;11993;48.748;9.166;2022-08-21T02:11:40;18.00;60.10
23633;DHT22;11993;48.748;9.166;2022-08-21T02:14:13;17.90;60.10
23633;DHT22;11993;48.748;9.166;2022-08-21T02:16:40;18.00;59.90
23633;DHT22;11993;48.748;9.166;2022-08-21T02:19:06;17.90;60.30
23633;DHT22;11993;48.748;9.166;2022-08-21T02:21:31;17.90;60.20
23633;DHT22;11993;48.748;9.166;2022-08-21T02:23:57;17.80;60.40
23633;DHT22;11993;48.748;9.166;2022-08-21T02:26:23;17.80;60.70
23633;DHT22;11993;48.748;9.166;2022-08-21T02:28:48;17.80;60.60
23633;DHT22;11993;48.748;9.166;2022-08-21T02:31:14;17.90;60.50
23633;DHT22;11993;48.748;9.166;2022-08-21T02:33:40;17.90;60.50
23633;DHT22;11993;48.748;9.166;2022-08-21T02:36:06;18.00;60.70
23633;DHT22;11993;48.748;9.166;2022-08-21T02:38:34;18.00;60.50
23633;DHT22;11993;48.748;9.166;2022-08-21T02:41:04;18.00;60.70
23633;DHT22;11993;48.748;9.166;2022-08-21T02:43:30;18.00;60.60
23633;DHT22;11993;48.748;9.166;2022-08-21T02:45:57;18.10;60.70
23633;DHT22;11993;48.748;9.166;2022-08-21T02:48:26;18.00;60.70
23633;DHT22;11993;48.748;9.166;2022-08-21T02:51:05;18.00;60.70
23633;DHT22;11993;48.748;9.166;2022-08-21T02:53:32;18.00;60.60
23633;DHT22;11993;48.748;9.166;2022-08-21T02:55:59;18.00;60.30
23633;DHT22;11993;48.748;9.166;2022-08-21T02:58:28;18.00;60.40
23633;DHT22;11993;48.748;9.166;2022-08-21T03:00:54;18.00;60.30
23633;DHT22;11993;48.748;9.166;2022-08-21T03:03:20;18.00;60.90
23633;DHT22;11993;48.748;9.166;2022-08-21T03:05:47;17.90;61.20
23633;DHT22;11993;48.748;9.166;2022-08-21T03:08:14;17.90;61.40
23633;DHT22;11993;48.748;9.166;2022-08-21T03:10:43;17.90;61.50
23633;DHT22;11993;48.748;9.166;2022-08-21T03:13:09;17.90;61.60
23633;DHT22;11993;48.748;9.166;2022-08-21T03:15:36;17.90;61.70
23633;DHT22;11993;48.748;9.166;2022-08-21T03:18:03;17.90;61.80
23633;DHT22;11993;48.748;9.166;2022-08-21T03:20:30;18.00;61.60
23633;DHT22;11993;48.748;9.166;2022-08-21T03:22:56;17.90;61.70
23633;DHT22;11993;48.748;9.166;2022-08-21T03:25:23;17.90;61.50
23633;DHT22;11993;48.748;9.166;2022-08-21T03:27:49;17.90;61.90
23633;DHT22;11993;48.748;9.166;2022-08-21T03:30:17;17.90;62.10
23633;DHT22;11993;48.748;9.166;2022-08-21T03:32:42;17.70;62.10
23633;DHT22;11993;48.748;9.166;2022-08-21T03:35:08;17.60;62.60
23633;DHT22;11993;48.748;9.166;2022-08-21T03:37:35;17.40;63.20
23633;DHT22;11993;48.748;9.166;2022-08-21T03:40:06;17.30;63.70
23633;DHT22;11993;48.748;9.166;2022-08-21T03:42:32;17.10;64.40
23633;DHT22;11993;48.748;9.166;2022-08-21T03:44:57;17.00;65.20
23633;DHT22;11993;48.748;9.166;2022-08-21T03:47:23;16.90;65.50
23633;DHT22;11993;48.748;9.166;2022-08-21T03:49:49;16.80;65.70
23633;DHT22;11993;48.748;9.166;2022-08-21T03:52:15;16.80;65.90
23633;DHT22;11993;48.748;9.166;2022-08-21T03:54:41;16.80;65.80
23633;DHT22;11993;48.748;9.166;2022-08-21T03:57:08;16.80;66.20
23633;DHT22;11993;48.748;9.166;2022-08-21T03:59:34;16.70;66.10
23633;DHT22;11993;48.748;9.166;2022-08-21T04:02:02;16.70;66.00
23633;DHT22;11993;48.748;9.166;2022-08-21T04:04:28;16.80;65.90
23633;DHT22;11993;48.748;9.166;2022-08-21T04:06:55;16.70;66.00
23633;DHT22;11993;48.748;9.166;2022-08-21T04:09:21;16.70;65.80
23633;DHT22;11993;48.748;9.166;2022-08-21T04:11:47;16.80;65.80
23633;DHT22;11993;48.748;9.166;2022-08-21T04:14:13;16.80;65.80
23633;DHT22;11993;48.748;9.166;2022-08-21T04:16:40;16.80;65.50
23633;DHT22;11993;48.748;9.166;2022-08-21T04:19:07;16.90;65.50
23633;DHT22;11993;48.748;9.166;2022-08-21T04:21:32;16.90;65.30
23633;DHT22;11993;48.748;9.166;2022-08-21T04:23:58;16.90;65.40
23633;DHT22;11993;48.748;9.166;2022-08-21T04:26:25;16.80;65.70
23633;DHT22;11993;48.748;9.166;2022-08-21T04:28:51;16.80;66.10
23633;DHT22;11993;48.748;9.166;2022-08-21T04:31:17;16.80;66.00
23633;DHT22;11993;48.748;9.166;2022-08-21T04:33:43;16.70;65.70
23633;DHT22;11993;48.748;9.166;2022-08-21T04:36:10;16.70;65.70
23633;DHT22;11993;48.748;9.166;2022-08-21T04:38:36;16.70;66.10
23633;DHT22;11993;48.748;9.166;2022-08-21T04:41:01;16.70;66.00
23633;DHT22;11993;48.748;9.166;2022-08-21T04:43:27;16.60;66.00
23633;DHT22;11993;48.748;9.166;2022-08-21T04:45:53;16.60;66.20
23633;DHT22;11993;48.748;9.166;2022-08-21T04:48:21;16.60;66.10
23633;DHT22;11993;48.748;9.166;2022-08-21T04:55:51;16.60;66.30
23633;DHT22;11993;48.748;9.166;2022-08-21T04:58:19;16.60;66.70
23633;DHT22;11993;48.748;9.166;2022-08-21T05:00:46;16.60;66.60
23633;DHT22;11993;48.748;9.166;2022-08-21T05:03:12;16.70;66.30
23633;DHT22;11993;48.748;9.166;2022-08-21T05:05:40;16.70;66.20
23633;DHT22;11993;48.748;9.166;2022-08-21T05:08:07;16.80;66.10
23633;DHT22;11993;48.748;9.166;2022-08-21T05:10:34;16.90;65.80
23633;DHT22;11993;48.748;9.166;2022-08-21T05:13:01;17.00;65.30
23633;DHT22;11993;48.748;9.166;2022-08-21T05:15:26;17.10;64.90
23633;DHT22;11993;48.748;9.166;2022-08-21T05:17:52;17.20;64.70
23633;DHT22;11993;48.748;9.166;2022-08-21T05:20:18;17.30;64.00
23633;DHT22;11993;48.748;9.166;2022-08-21T05:22:44;17.30;63.90
23633;DHT22;11993;48.748;9.166;2022-08-21T05:25:11;17.40;63.80
23633;DHT22;11993;48.748;9.166;2022-08-21T05:27:38;17.50;63.70
23633;DHT22;11993;48.748;9.166;2022-08-21T05:30:07;17.60;63.40
23633;DHT22;11993;48.748;9.166;2022-08-21T05:32:34;17.70;63.20
23633;DHT22;11993;48.748;9.166;2022-08-21T05:35:00;17.80;62.70
23633;DHT22;11993;48.748;9.166;2022-08-21T05:37:26;17.90;62.80
23633;DHT22;11993;48.748;9.166;2022-08-21T05:39:51;17.90;62.90
23633;DHT22;11993;48.748;9.166;2022-08-21T05:42:17;18.10;62.50
23633;DHT22;11993;48.748;9.166;2022-08-21T05:44:42;18.10;62.30
23633;DHT22;11993;48.748;9.166;2022-08-21T05:47:10;18.30;61.90
23633;DHT22;11993;48.748;9.166;2022-08-21T05:49:36;18.30;62.00
23633;DHT22;11993;48.748;9.166;2022-08-21T05:52:03;18.40;61.80
23633;DHT22;11993;48.748;9.166;2022-08-21T05:54:29;18.60;61.80
23633;DHT22;11993;48.748;9.166;2022-08-21T05:56:55;18.70;61.50
23633;DHT22;11993;48.748;9.166;2022-08-21T05:59:21;18.90;61.20
23633;DHT22;11993;48.748;9.166;2022-08-21T06:01:46;19.00;60.90
23633;DHT22;11993;48.748;9.166;2022-08-21T06:04:12;19.20;60.50
23633;DHT22;11993;48.748;9.166;2022-08-21T06:06:39;19.40;60.10
23633;DHT22;11993;48.748;9.166;2022-08-21T06:09:05;19.60;59.60
23633;DHT22;11993;48.748;9.166;2022-08-21T06:11:31;19.70;59.00
23633;DHT22;11993;48.748;9.166;2022-08-21T06:13:57;19.80;57.70
23633;DHT22;11993;48.748;9.166;2022-08-21T06:16:26;20.00;57.60
23633;DHT22;11993;48.748;9.166;2022-08-21T06:18:52;20.00;57.00
23633;DHT22;11993;48.748;9.166;2022-08-21T06:21:18;19.90;57.20
23633;DHT22;11993;48.748;9.166;2022-08-21T06:23:44;19.90;57.70
23633;DHT22;11993;48.748;9.166;2022-08-21T06:26:11;19.90;58.20
23633;DHT22;11993;48.748;9.166;2022-08-21T06:28:37;20.00;58.70
23633;DHT22;11993;48.748;9.166;2022-08-21T06:31:28;20.00;59.20
23633;DHT22;11993;48.748;9.166;2022-08-21T06:33:54;20.10;58.50
23633;DHT22;11993;48.748;9.166;2022-08-21T06:36:20;20.30;58.50
23633;DHT22;11993;48.748;9.166;2022-08-21T06:38:49;20.40;58.80
23633;DHT22;11993;48.748;9.166;2022-08-21T06:41:15;20.50;58.30
23633;DHT22;11993;48.748;9.166;2022-08-21T06:43:40;20.60;57.70
23633;DHT22;11993;48.748;9.166;2022-08-21T06:46:07;20.60;56.80
23633;DHT22;11993;48.748;9.166;2022-08-21T06:48:32;20.90;56.20
23633;DHT22;11993;48.748;9.166;2022-08-21T06:50:59;21.10;54.90
23633;DHT22;11993;48.748;9.166;2022-08-21T06:53:25;21.20;54.60
23633;DHT22;11993;48.748;9.166;2022-08-21T06:55:51;21.30;54.30
23633;DHT22;11993;48.748;9.166;2022-08-21T06:58:17;21.50;54.10
23633;DHT22;11993;48.748;9.166;2022-08-21T07:00:46;21.50;52.70
23633;DHT22;11993;48.748;9.166;2022-08-21T07:03:26;21.60;53.10
23633;DHT22;11993;48.748;9.166;2022-08-21T07:05:53;21.70;53.20
23633;DHT22;11993;48.748;9.166;2022-08-21T07:08:20;21.90;53.20
23633;DHT22;11993;48.748;9.166;2022-08-21T07:10:47;21.90;52.50
23633;DHT22;11993;48.748;9.166;2022-08-21T07:13:14;22.00;52.70
23633;DHT22;11993;48.748;9.166;2022-08-21T07:15:39;22.10;53.00
23633;DHT22;11993;48.748;9.166;2022-08-21T07:18:06;22.10;51.80
23633;DHT22;11993;48.748;9.166;2022-08-21T07:20:32;22.00;51.80
23633;DHT22;11993;48.748;9.166;2022-08-21T07:23:01;22.00;52.10
23633;DHT22;11993;48.748;9.166;2022-08-21T07:25:27;22.10;52.60
23633;DHT22;11993;48.748;9.166;2022-08-21T07:27:52;22.30;52.40
23633;DHT22;11993;48.748;9.166;2022-08-21T07:30:18;22.60;51.80
23633;DHT22;11993;48.748;9.166;2022-08-21T07:32:44;22.70;50.80
23633;DHT22;11993;48.748;9.166;2022-08-21T07:35:10;22.60;51.30
23633;DHT22;11993;48.748;9.166;2022-08-21T07:37:35;22.50;51.00
23633;DHT22;11993;48.748;9.166;2022-08-21T07:40:01;22.60;51.40
23633;DHT22;11993;48.748;9.166;2022-08-21T07:42:26;23.00;51.00
23633;DHT22;11993;48.748;9.166;2022-08-21T07:44:52;23.20;50.60
23633;DHT22;11993;48.748;9.166;2022-08-21T07:47:17;23.50;50.00
23633;DHT22;11993;48.748;9.166;2022-08-21T07:49:43;23.70;49.40
23633;DHT22;11993;48.748;9.166;2022-08-21T07:52:08;24.00;48.80
23633;DHT22;11993;48.748;9.166;2022-08-21T07:54:34;24.10;48.00
23633;DHT22;11993;48.748;9.166;2022-08-21T07:57:00;24.20;48.70
23633;DHT22;11993;48.748;9.166;2022-08-21T07:59:27;24.50;47.70
23633;DHT22;11993;48.748;9.166;2022-08-21T08:01:52;24.40;46.90
23633;DHT22;11993;48.748;9.166;2022-08-21T08:04:18;24.40;46.50
23633;DHT22;11993;48.748;9.166;2022-08-21T08:06:43;24.50;46.10
23633;DHT22;11993;48.748;9.166;2022-08-21T08:09:09;24.60;45.20
23633;DHT22;11993;48.748;9.166;2022-08-21T08:11:36;24.90;45.10
23633;DHT22;11993;48.748;9.166;2022-08-21T08:14:03;25.10;44.50
23633;DHT22;11993;48.748;9.166;2022-08-21T08:16:29;25.20;44.00
23633;DHT22;11993;48.748;9.166;2022-08-21T08:18:55;25.30;43.70
23633;DHT22;11993;48.748;9.166;2022-08-21T08:21:21;25.40;44.60
23633;DHT22;11993;48.748;9.166;2022-08-21T08:23:47;25.30;44.30
23633;DHT22;11993;48.748;9.166;2022-08-21T08:26:13;25.10;44.70
23633;DHT22;11993;48.748;9.166;2022-08-21T08:28:41;25.10;44.80
23633;DHT22;11993;48.748;9.166;2022-08-21T08:31:06;25.10;44.70
23633;DHT22;11993;48.748;9.166;2022-08-21T08:33:32;25.10;44.00
23633;DHT22;11993;48.748;9.166;2022-08-21T08:35:57;25.00;43.80
23633;DHT22;11993;48.748;9.166;2022-08-21T08:38:24;25.10;44.10
23633;DHT22;11993;48.748;9.166;2022-08-21T08:43:38;25.60;43.00
23633;DHT22;11993;48.748;9.166;2022-08-21T08:46:14;25.70;42.90
23633;DHT22;11993;48.748;9.166;2022-08-21T08:48:55;25.80;44.20
23633;DHT22;11993;48.748;9.166;2022-08-21T08:51:26;26.10;42.70
23633;DHT22;11993;48.748;9.166;2022-08-21T08:54:00;26.60;41.70
23633;DHT22;11993;48.748;9.166;2022-08-21T08:56:30;26.60;41.30
23633;DHT22;11993;48.748;9.166;2022-08-21T08:59:02;26.90;41.60
23633;DHT22;11993;48.748;9.166;2022-08-21T09:01:29;27.10;39.20
23633;DHT22;11993;48.748;9.166;2022-08-21T09:03:54;26.90;38.00
23633;DHT22;11993;48.748;9.166;2022-08-21T09:09:27;27.00;38.10
23633;DHT22;11993;48.748;9.166;2022-08-21T09:17:53;27.30;37.60
23633;DHT22;11993;48.748;9.166;2022-08-21T09:25:52;26.90;38.80
23633;DHT22;11993;48.748;9.166;2022-08-21T09:28:19;26.60;39.90
23633;DHT22;11993;48.748;9.166;2022-08-21T09:30:44;26.00;40.80
23633;DHT22;11993;48.748;9.166;2022-08-21T09:33:13;25.90;41.60
23633;DHT22;11993;48.748;9.166;2022-08-21T09:35:52;25.90;40.90
23633;DHT22;11993;48.748;9.166;2022-08-21T09:38:51;25.80;40.70
23633;DHT22;11993;48.748;9.166;2022-08-21T09:41:27;26.00;40.50
23633;DHT22;11993;48.748;9.166;2022-08-21T09:43:54;25.80;40.40
23633;DHT22;11993;48.748;9.166;2022-08-21T09:46:26;25.40;41.40
23633;DHT22;11993;48.748;9.166;2022-08-21T09:48:58;25.80;42.30
23633;DHT22;11993;48.748;9.166;2022-08-21T09:51:27;26.40;41.40
23633;DHT22;11993;48.748;9.166;2022-08-21T09:56:37;27.10;39.90
23633;DHT22;11993;48.748;9.166;2022-08-21T09:59:28;27.10;39.50
23633;DHT22;11993;48.748;9.166;2022-08-21T10:01:57;27.00;39.90
23633;DHT22;11993;48.748;9.166;2022-08-21T10:04:28;27.20;39.90
23633;DHT22;11993;48.748;9.166;2022-08-21T10:06:54;27.00;41.50
23633;DHT22;11993;48.748;9.166;2022-08-21T10:09:20;26.60;39.70
23633;DHT22;11993;48.748;9.166;2022-08-21T10:11:58;26.10;41.60
23633;DHT22;11993;48.748;9.166;2022-08-21T10:17:12;27.30;39.50
23633;DHT22;11993;48.748;9.166;2022-08-21T10:25:23;28.00;38.30
23633;DHT22;11993;48.748;9.166;2022-08-21T10:36:13;28.60;36.20
23633;DHT22;11993;48.748;9.166;2022-08-21T10:41:14;29.20;36.70
23633;DHT22;11993;48.748;9.166;2022-08-21T10:48:58;28.90;35.90
23633;DHT22;11993;48.748;9.166;2022-08-21T10:51:40;29.20;35.70
23633;DHT22;11993;48.748;9.166;2022-08-21T10:56:45;29.70;34.60
23633;DHT22;11993;48.748;9.166;2022-08-21T10:59:33;29.80;33.90
23633;DHT22;11993;48.748;9.166;2022-08-21T11:05:17;30.10;34.60
23633;DHT22;11993;48.748;9.166;2022-08-21T11:07:53;29.90;34.90
23633;DHT22;11993;48.748;9.166;2022-08-21T11:10:33;30.30;34.70
23633;DHT22;11993;48.748;9.166;2022-08-21T11:13:07;30.00;34.50
23633;DHT22;11993;48.748;9.166;2022-08-21T11:15:47;29.60;35.00
23633;DHT22;11993;48.748;9.166;2022-08-21T11:18:21;29.60;34.90
23633;DHT22;11993;48.748;9.166;2022-08-21T11:23:45;30.00;33.50
23633;DHT22;11993;48.748;9.166;2022-08-21T11:26:30;30.40;33.40
23633;DHT22;11993;48.748;9.166;2022-08-21T11:29:06;30.10;34.10
23633;DHT22;11993;48.748;9.166;2022-08-21T11:34:28;30.90;32.80
23633;DHT22;11993;48.748;9.166;2022-08-21T11:37:16;31.20;32.40
23633;DHT22;11993;48.748;9.166;2022-08-21T11:50:48;28.00;36.40
23633;DHT22;11993;48.748;9.166;2022-08-21T11:53:22;27.90;36.30
23633;DHT22;11993;48.748;9.166;2022-08-21T11:55:55;28.50;36.00
23633;DHT22;11993;48.748;9.166;2022-08-21T11:58:39;28.40;35.50
23633;DHT22;11993;48.748;9.166;2022-08-21T12:03:55;29.10;34.50
23633;DHT22;11993;48.748;9.166;2022-08-21T12:06:36;29.40;35.20
23633;DHT22;11993;48.748;9.166;2022-08-21T12:09:51;29.60;34.00
23633;DHT22;11993;48.748;9.166;2022-08-21T12:12:13;29.50;34.10
23633;DHT22;11993;48.748;9.166;2022-08-21T12:14:49;29.20;34.60
23633;DHT22;11993;48.748;9.166;2022-08-21T12:17:26;29.60;33.90
23633;DHT22;11993;48.748;9.166;2022-08-21T12:22:54;29.50;33.80
23633;DHT22;11993;48.748;9.166;2022-08-21T12:25:39;29.20;33.40
23633;DHT22;11993;48.748;9.166;2022-08-21T12:28:11;29.40;33.40
23633;DHT22;11993;48.748;9.166;2022-08-21T12:30:41;29.30;33.60
23633;DHT22;11993;48.748;9.166;2022-08-21T12:35:49;29.10;34.30
23633;DHT22;11993;48.748;9.166;2022-08-21T12:38:23;29.20;34.10
23633;DHT22;11993;48.748;9.166;2022-08-21T12:40:59;29.70;32.50
23633;DHT22;11993;48.748;9.166;2022-08-21T12:43:40;30.10;32.90
23633;DHT22;11993;48.748;9.166;2022-08-21T12:46:06;30.50;31.90
23633;DHT22;11993;48.748;9.166;2022-08-21T12:48:39;30.70;30.70
23633;DHT22;11993;48.748;9.166;2022-08-21T12:51:15;30.80;31.30
23633;DHT22;11993;48.748;9.166;2022-08-21T12:53:49;30.60;30.90
23633;DHT22;11993;48.748;9.166;2022-08-21T12:56:18;31.00;30.90
23633;DHT22;11993;48.748;9.166;2022-08-21T12:58:49;31.50;30.10
23633;DHT22;11993;48.748;9.166;2022-08-21T13:01:27;31.10;30.40
23633;DHT22;11993;48.748;9.166;2022-08-21T13:03:56;31.50;30.40
23633;DHT22;11993;48.748;9.166;2022-08-21T13:06:23;31.70;30.50
23633;DHT22;11993;48.748;9.166;2022-08-21T13:08:56;32.00;30.20
23633;DHT22;11993;48.748;9.166;2022-08-21T13:11:23;32.40;29.70
23633;DHT22;11993;48.748;9.166;2022-08-21T13:13:51;32.10;29.40
23633;DHT22;11993;48.748;9.166;2022-08-21T13:16:35;31.30;29.80
23633;DHT22;11993;48.748;9.166;2022-08-21T13:19:04;31.80;30.20
23633;DHT22;11993;48.748;9.166;2022-08-21T13:21:39;31.00;30.30
23633;DHT22;11993;48.748;9.166;2022-08-21T13:24:18;30.90;30.90
23633;DHT22;11993;48.748;9.166;2022-08-21T13:26:45;30.30;31.40
23633;DHT22;11993;48.748;9.166;2022-08-21T13:29:13;29.60;32.20
23633;DHT22;11993;48.748;9.166;2022-08-21T13:31:45;29.50;31.70
23633;DHT22;11993;48.748;9.166;2022-08-21T13:34:11;30.00;32.20
23633;DHT22;11993;48.748;9.166;2022-08-21T13:36:40;29.60;32.20
23633;DHT22;11993;48.748;9.166;2022-08-21T13:39:15;29.70;32.70
23633;DHT22;11993;48.748;9.166;2022-08-21T13:41:44;30.20;31.10
23633;DHT22;11993;48.748;9.166;2022-08-21T13:44:21;29.90;31.90
23633;DHT22;11993;48.748;9.166;2022-08-21T13:46:48;29.90;32.60
23633;DHT22;11993;48.748;9.166;2022-08-21T13:49:17;29.80;32.00
23633;DHT22;11993;48.748;9.166;2022-08-21T13:51:44;29.60;32.30
23633;DHT22;11993;48.748;9.166;2022-08-21T13:54:20;29.60;32.30
23633;DHT22;11993;48.748;9.166;2022-08-21T13:56:47;30.10;33.00
23633;DHT22;11993;48.748;9.166;2022-08-21T13:59:24;30.60;31.30
23633;DHT22;11993;48.748;9.166;2022-08-21T14:01:54;31.10;31.40
23633;DHT22;11993;48.748;9.166;2022-08-21T14:04:35;31.50;30.20
23633;DHT22;11993;48.748;9.166;2022-08-21T14:07:02;31.90;29.80
23633;DHT22;11993;48.748;9.166;2022-08-21T14:09:32;32.00;29.80
23633;DHT22;11993;48.748;9.166;2022-08-21T14:12:01;32.10;29.60
23633;DHT22;11993;48.748;9.166;2022-08-21T14:14:33;32.10;29.30
23633;DHT22;11993;48.748;9.166;2022-08-21T14:17:03;32.00;30.00
23633;DHT22;11993;48.748;9.166;2022-08-21T14:19:39;32.00;29.30
23633;DHT22;11993;48.748;9.166;2022-08-21T14:22:28;32.10;28.90
23633;DHT22;11993;48.748;9.166;2022-08-21T14:25:06;32.10;29.60
23633;DHT22;11993;48.748;9.166;2022-08-21T14:27:35;32.20;28.80
23633;DHT22;11993;48.748;9.166;2022-08-21T14:30:12;32.20;29.10
23633;DHT22;11993;48.748;9.166;2022-08-21T14:32:40;31.30;28.80
23633;DHT22;11993;48.748;9.166;2022-08-21T14:35:07;30.40;30.20
23633;DHT22;11993;48.748;9.166;2022-08-21T14:37:32;30.60;30.20
23633;DHT22;11993;48.748;9.166;2022-08-21T14:39:58;30.90;30.40
23633;DHT22;11993;48.748;9.166;2022-08-21T14:42:24;30.90;30.90
23633;DHT22;11993;48.748;9.166;2022-08-21T14:44:51;30.60;30.20
23633;DHT22;11993;48.748;9.166;2022-08-21T14:47:16;30.10;30.50
23633;DHT22;11993;48.748;9.166;2022-08-21T14:49:42;30.10;30.90
23633;DHT22;11993;48.748;9.166;2022-08-21T14:52:08;30.00;31.00
23633;DHT22;11993;48.748;9.166;2022-08-21T14:54:34;29.80;31.40
23633;DHT22;11993;48.748;9.166;2022-08-21T14:57:04;30.10;31.10
23633;DHT22;11993;48.748;9.166;2022-08-21T14:59:30;30.30;31.00
23633;DHT22;11993;48.748;9.166;2022-08-21T15:01:57;30.30;31.00
23633;DHT22;11993;48.748;9.166;2022-08-21T15:04:23;30.30;31.30
23633;DHT22;11993;48.748;9.166;2022-08-21T15:06:49;30.50;31.30
23633;DHT22;11993;48.748;9.166;2022-08-21T15:09:14;30.60;31.10
23633;DHT22;11993;48.748;9.166;2022-08-21T15:11:40;30.70;30.60
23633;DHT22;11993;48.748;9.166;2022-08-21T15:14:08;30.60;30.30
23633;DHT22;11993;48.748;9.166;2022-08-21T15:16:35;30.60;30.50
23633;DHT22;11993;48.748;9.166;2022-08-21T15:19:02;30.70;30.40
23633;DHT22;11993;48.748;9.166;2022-08-21T15:21:28;30.60;30.10
23633;DHT22;11993;48.748;9.166;2022-08-21T15:23:53;30.10;30.40
23633;DHT22;11993;48.748;9.166;2022-08-21T15:26:20;29.60;31.30
23633;DHT22;11993;48.748;9.166;2022-08-21T15:28:47;29.50;31.70
23633;DHT22;11993;48.748;9.166;2022-08-21T15:31:12;29.30;30.90
23633;DHT22;11993;48.748;9.166;2022-08-21T15:33:38;29.30;31.50
23633;DHT22;11993;48.748;9.166;2022-08-21T15:36:04;29.50;31.80
23633;DHT22;11993;48.748;9.166;2022-08-21T15:38:29;29.40;31.70
23633;DHT22;11993;48.748;9.166;2022-08-21T15:40:55;29.40;32.10
23633;DHT22;11993;48.748;9.166;2022-08-21T15:43:28;29.30;31.50
23633;DHT22;11993;48.748;9.166;2022-08-21T15:45:55;29.30;32.00
23633;DHT22;11993;48.748;9.166;2022-08-21T15:48:21;29.10;32.10
23633;DHT22;11993;48.748;9.166;2022-08-21T15:50:47;29.10;32.60
23633;DHT22;11993;48.748;9.166;2022-08-21T15:53:13;29.20;32.20
23633;DHT22;11993;48.748;9.166;2022-08-21T15:55:39;29.10;31.80
23633;DHT22;11993;48.748;9.166;2022-08-21T15:58:05;28.60;32.00
23633;DHT22;11993;48.748;9.166;2022-08-21T16:00:33;28.30;32.30
23633;DHT22;11993;48.748;9.166;2022-08-21T16:03:00;27.90;33.10
23633;DHT22;11993;48.748;9.166;2022-08-21T16:05:28;27.80;33.30
23633;DHT22;11993;48.748;9.166;2022-08-21T16:07:53;27.80;33.50
23633;DHT22;11993;48.748;9.166;2022-08-21T16:10:22;27.90;33.90
23633;DHT22;11993;48.748;9.166;2022-08-21T16:12:55;28.00;33.60
23633;DHT22;11993;48.748;9.166;2022-08-21T16:15:22;27.90;33.40
23633;DHT22;11993;48.748;9.166;2022-08-21T16:17:49;27.80;33.00
23633;DHT22;11993;48.748;9.166;2022-08-21T16:20:20;27.80;33.60
23633;DHT22;11993;48.748;9.166;2022-08-21T16:22:46;27.60;33.80
23633;DHT22;11993;48.748;9.166;2022-08-21T16:25:14;27.70;33.60
23633;DHT22;11993;48.748;9.166;2022-08-21T16:27:41;27.70;33.40
23633;DHT22;11993;48.748;9.166;2022-08-21T16:30:09;27.60;33.40
23633;DHT22;11993;48.748;9.166;2022-08-21T16:32:35;27.10;33.60
23633;DHT22;11993;48.748;9.166;2022-08-21T16:35:01;27.00;33.30
23633;DHT22;11993;48.748;9.166;2022-08-21T16:37:28;26.90;33.70
23633;DHT22;11993;48.748;9.166;2022-08-21T16:39:53;26.90;34.30
23633;DHT22;11993;48.748;9.166;2022-08-21T16:42:22;27.00;34.00
23633;DHT22;11993;48.748;9.166;2022-08-21T16:44:48;26.70;34.30
23633;DHT22;11993;48.748;9.166;2022-08-21T16:47:14;26.60;34.80
23633;DHT22;11993;48.748;9.166;2022-08-21T16:49:40;26.60;34.90
23633;DHT22;11993;48.748;9.166;2022-08-21T16:52:06;26.70;35.10
23633;DHT22;11993;48.748;9.166;2022-08-21T16:54:32;26.70;34.20
23633;DHT22;11993;48.748;9.166;2022-08-21T16:56:58;26.60;34.20
23633;DHT22;11993;48.748;9.166;2022-08-21T16:59:24;26.60;34.40
23633;DHT22;11993;48.748;9.166;2022-08-21T17:01:51;26.60;34.60